Main page
METAR-TAF:

METAR-TAF

Airports :

Nouakchott–Oumtounsy International Airport

Nouakchott, Mauritania

latitude: 18-18-36N, longitude: 015-58-11W, elevation: 3 m

Current weather observation

The report was made 59 minutes ago, at 21:00 UTC
Wind 14 kt from the North/Northwest
Temperature 27°C
Humidity 45%
Pressure 1010 hPa
Visibility: 8000 m

METAR: GQNO 092100Z 33014KT 8000 NSC 27/14 Q1010 NOSIG

Time: 21:59 (21:59 UTC)

Forecast

The report was made 4 hours and 59 minutes ago, at 17:00 UTC
Forecast valid from 09 at 18 UTC to 10 at 24 UTC
Wind 12 kt from the North/Northwest
Visibility: 7000 m
Becoming
from 10 at 07 UTC to 10 at 10 UTC
Wind 14 kt from the East/Northeast
Becoming
from 10 at 14 UTC to 10 at 17 UTC
Wind 12 kt from the North/Northwest

TAF: GQNO 091700Z 0918/1024 33012KT 7000 NSC BECMG 1007/1010 07014KT BECMG 1014/1017 33012KT

Weather observations and forecasts of more than 4000 airports (METAR and TAF reports).

The available stations are represented by yellow and red dots on the map.

Hover mouse over dot to see the name of the station.

Then click to see weather observations and forecasts.

To change the map : click on the green buttons with a black cross to zoom in, on the green button with a dash to zoom out, or on the green arrows for adjacent maps.


METAR-TAF: